Time;durP1;ratioP1;P1;durP2;ratioP2;P2;SDS_P1;SDS_P2;PMS_P1;PMS_P2;Temp;Humidity;BMP_temperature;BMP_pressure;BME280_temperature;BME280_humidity;BME280_pressure;Samples;Min_cycle;Max_cycle;Signal;HPM_P1;HPM_P2
2022/02/08 00:00:04;;;;;;;5.47;3.37;;;;;;;;;;5020925;28;20415;-80
2022/02/08 00:02:33;;;;;;;11.43;2.63;;;;;;;;;;5019906;28;20415;-81
2022/02/08 00:04:59;;;;;;;3.90;2.30;;;;;;;;;;5020708;28;20483;-81
2022/02/08 00:07:27;;;;;;;4.97;2.73;;;;;;;;;;5034671;28;20568;-80
2022/02/08 00:09:54;;;;;;;6.00;2.87;;;;;;;;;;5034536;28;20481;-81
2022/02/08 00:12:20;;;;;;;8.10;3.30;;;;;;;;;;5034913;28;20411;-81
2022/02/08 00:14:47;;;;;;;6.00;2.90;;;;;;;;;;5034920;28;20509;-80
2022/02/08 00:17:13;;;;;;;8.50;2.77;;;;;;;;;;5020113;28;20527;-80
2022/02/08 00:19:40;;;;;;;5.67;2.83;;;;;;;;;;5019614;28;20479;-79
2022/02/08 00:22:06;;;;;;;5.80;3.13;;;;;;;;;;5019431;28;20891;-80
2022/02/08 00:24:33;;;;;;;6.90;2.53;;;;;;;;;;5021310;28;20418;-79
2022/02/08 00:26:59;;;;;;;10.53;3.20;;;;;;;;;;5037995;28;20415;-79
2022/02/08 00:29:25;;;;;;;4.77;2.70;;;;;;;;;;5019880;28;20569;-80
2022/02/08 00:31:51;;;;;;;7.50;4.10;;;;;;;;;;5018748;28;20392;-80
2022/02/08 00:34:17;;;;;;;12.70;2.90;;;;;;;;;;5034519;28;20418;-80
2022/02/08 00:36:43;;;;;;;7.40;3.30;;;;;;;;;;5034839;28;20461;-79
2022/02/08 00:39:10;;;;;;;8.87;3.50;;;;;;;;;;5034171;28;20536;-80
2022/02/08 00:41:37;;;;;;;6.47;2.80;;;;;;;;;;5021063;28;20423;-80
2022/02/08 00:44:10;;;;;;;4.13;2.70;;;;;;;;;;5021394;28;20490;-80
2022/02/08 00:47:24;;;;;;;5.73;3.23;;;;;;;;;;5034986;28;20474;-80
2022/02/08 00:49:31;;;;;;;6.03;3.13;;;;;;;;;;5031518;23;20497;-78
2022/02/08 00:52:05;;;;;;;11.10;3.23;;;;;;;;;;5043054;28;20458;-79
2022/02/08 00:54:31;;;;;;;5.90;2.83;;;;;;;;;;5042754;28;20493;-77
2022/02/08 00:56:57;;;;;;;7.73;2.70;;;;;;;;;;5038580;28;20900;-78
2022/02/08 00:59:23;;;;;;;4.97;2.80;;;;;;;;;;5038727;28;20875;-77
2022/02/08 01:01:49;;;;;;;5.97;3.10;;;;;;;;;;5044447;28;20418;-78
2022/02/08 01:04:17;;;;;;;4.53;2.33;;;;;;;;;;5045468;28;20401;-78
2022/02/08 01:06:45;;;;;;;7.63;2.43;;;;;;;;;;5048135;28;20395;-77
2022/02/08 01:09:27;;;;;;;9.00;3.03;;;;;;;;;;5048052;28;20992;-77
2022/02/08 01:11:55;;;;;;;4.93;2.83;;;;;;;;;;5050043;28;20386;-78
2022/02/08 01:14:23;;;;;;;5.17;2.63;;;;;;;;;;5051717;28;20429;-78
2022/02/08 01:16:50;;;;;;;4.50;2.40;;;;;;;;;;5049518;28;20410;-77
2022/02/08 01:19:19;;;;;;;6.23;2.40;;;;;;;;;;5047256;28;20432;-78
2022/02/08 01:21:45;;;;;;;4.97;2.80;;;;;;;;;;5040155;28;20391;-78
2022/02/08 01:24:11;;;;;;;4.50;2.63;;;;;;;;;;5043710;28;20911;-78
2022/02/08 01:26:46;;;;;;;6.10;2.63;;;;;;;;;;5046068;28;20862;-78
2022/02/08 01:29:28;;;;;;;3.87;1.83;;;;;;;;;;5036447;28;20920;-78
2022/02/08 01:32:00;;;;;;;7.03;2.87;;;;;;;;;;5035969;28;20383;-78
2022/02/08 01:39:42;;;;;;;3.40;2.47;;;;;;;;;;5038090;28;20374;-78
2022/02/08 01:44:59;;;;;;;4.67;2.33;;;;;;;;;;5036894;28;20429;-78
2022/02/08 01:50:11;;;;;;;7.50;2.40;;;;;;;;;;5041953;28;20444;-78
2022/02/08 01:52:37;;;;;;;9.77;2.60;;;;;;;;;;5039464;28;20910;-78
2022/02/08 01:55:03;;;;;;;8.30;2.60;;;;;;;;;;5035767;28;20433;-78
2022/02/08 01:57:29;;;;;;;7.30;2.40;;;;;;;;;;5035300;28;20453;-78
2022/02/08 01:59:56;;;;;;;5.60;2.23;;;;;;;;;;5035341;28;20438;-78
2022/02/08 02:02:22;;;;;;;7.50;2.00;;;;;;;;;;5034296;28;20490;-78
2022/02/08 02:04:48;;;;;;;2.80;1.70;;;;;;;;;;5033549;28;20413;-78
2022/02/08 02:07:16;;;;;;;4.70;2.33;;;;;;;;;;5035601;28;20820;-78
2022/02/08 02:09:45;;;;;;;5.13;2.50;;;;;;;;;;5035095;28;20422;-78
2022/02/08 02:12:11;;;;;;;4.00;2.23;;;;;;;;;;5034170;28;20478;-78
2022/02/08 02:14:38;;;;;;;3.27;1.93;;;;;;;;;;5037917;28;20405;-78
2022/02/08 02:17:04;;;;;;;7.77;2.20;;;;;;;;;;5041861;28;20410;-78
2022/02/08 02:19:31;;;;;;;4.50;2.13;;;;;;;;;;5040768;28;20406;-78
2022/02/08 02:21:58;;;;;;;4.10;2.37;;;;;;;;;;5032670;28;20421;-77
2022/02/08 02:24:24;;;;;;;4.43;1.83;;;;;;;;;;5038869;28;20410;-78
2022/02/08 02:26:50;;;;;;;5.13;2.30;;;;;;;;;;5039224;28;20390;-78
2022/02/08 02:29:17;;;;;;;5.33;2.20;;;;;;;;;;5044112;28;20477;-79
2022/02/08 02:31:44;;;;;;;3.27;2.20;;;;;;;;;;5049017;28;20398;-78
2022/02/08 02:34:10;;;;;;;5.43;1.83;;;;;;;;;;5041337;28;20413;-78
2022/02/08 02:36:40;;;;;;;5.43;2.00;;;;;;;;;;5040472;28;20398;-78
2022/02/08 02:39:07;;;;;;;4.47;2.07;;;;;;;;;;5038322;28;20468;-78
2022/02/08 02:41:51;;;;;;;5.67;2.07;;;;;;;;;;5042053;28;20418;-78
2022/02/08 02:44:20;;;;;;;6.20;2.27;;;;;;;;;;5050225;28;20406;-78
2022/02/08 02:46:47;;;;;;;5.90;2.57;;;;;;;;;;5040886;28;20440;-78
2022/02/08 02:49:13;;;;;;;5.47;2.47;;;;;;;;;;5040110;28;20405;-78
2022/02/08 02:51:40;;;;;;;9.07;2.90;;;;;;;;;;5039881;28;20432;-77
2022/02/08 02:54:16;;;;;;;6.03;2.37;;;;;;;;;;5039216;28;20411;-78
2022/02/08 02:56:43;;;;;;;8.30;2.70;;;;;;;;;;5039863;28;20394;-78
2022/02/08 02:59:09;;;;;;;6.73;1.77;;;;;;;;;;5039165;28;20500;-78
2022/02/08 03:04:29;;;;;;;5.70;2.00;;;;;;;;;;5028284;28;20960;-78
2022/02/08 03:20:23;;;;;;;8.17;2.07;;;;;;;;;;5039907;28;20832;-79
2022/02/08 03:22:49;;;;;;;5.23;2.00;;;;;;;;;;5040496;28;20402;-79
2022/02/08 03:25:15;;;;;;;4.53;1.93;;;;;;;;;;5040060;28;20494;-79
2022/02/08 03:27:41;;;;;;;5.50;1.90;;;;;;;;;;5040274;28;20422;-79
2022/02/08 03:30:07;;;;;;;6.40;1.77;;;;;;;;;;5040235;28;20422;-79
2022/02/08 03:32:33;;;;;;;9.07;2.90;;;;;;;;;;5040425;28;20403;-79
2022/02/08 03:34:59;;;;;;;7.80;3.53;;;;;;;;;;5040499;28;20406;-79
2022/02/08 03:37:29;;;;;;;6.37;2.23;;;;;;;;;;5040020;28;20442;-79
2022/02/08 03:40:08;;;;;;;5.93;1.73;;;;;;;;;;5038574;28;20441;-79
2022/02/08 03:42:38;;;;;;;3.67;1.67;;;;;;;;;;5039586;28;20383;-78
2022/02/08 03:45:07;;;;;;;5.50;1.83;;;;;;;;;;5039826;28;20470;-79
2022/02/08 03:47:35;;;;;;;3.17;1.87;;;;;;;;;;5039314;28;20433;-79
2022/02/08 03:50:03;;;;;;;3.57;1.70;;;;;;;;;;5039068;28;20454;-79
2022/02/08 03:52:29;;;;;;;3.80;2.00;;;;;;;;;;5034952;28;20442;-78
2022/02/08 03:54:55;;;;;;;4.77;1.70;;;;;;;;;;5030804;28;20432;-79
2022/02/08 03:57:25;;;;;;;3.73;1.50;;;;;;;;;;5038497;28;20450;-78
2022/02/08 03:59:52;;;;;;;6.90;1.70;;;;;;;;;;5030770;28;20454;-79
2022/02/08 04:03:00;;;;;;;6.23;2.03;;;;;;;;;;5039502;28;20791;-79
2022/02/08 04:05:25;;;;;;;8.50;2.13;;;;;;;;;;5035435;28;20421;-77
2022/02/08 04:07:56;;;;;;;4.53;2.10;;;;;;;;;;5036969;28;20825;-79
2022/02/08 04:10:25;;;;;;;3.27;1.83;;;;;;;;;;5037910;28;20422;-79
2022/02/08 04:13:08;;;;;;;5.17;2.10;;;;;;;;;;5039334;28;20407;-79
2022/02/08 04:34:24;;;;;;;2.70;1.77;;;;;;;;;;5043032;28;20395;-78
2022/02/08 04:37:18;;;;;;;4.10;2.30;;;;;;;;;;5040289;28;20403;-79
2022/02/08 04:39:57;;;;;;;5.90;1.70;;;;;;;;;;5035346;28;20591;-78
2022/02/08 04:42:33;;;;;;;8.73;2.27;;;;;;;;;;5036401;28;20870;-78
2022/02/08 04:50:11;;;;;;;3.30;2.27;;;;;;;;;;5018531;28;20865;-78
2022/02/08 04:52:38;;;;;;;5.97;2.03;;;;;;;;;;5018516;28;20400;-79
2022/02/08 04:58:09;;;;;;;4.47;1.80;;;;;;;;;;5016790;28;20447;-77
2022/02/08 05:00:45;;;;;;;4.90;1.83;;;;;;;;;;5017497;28;20419;-79
2022/02/08 05:37:17;;;;;;;4.73;1.87;;;;;;;;;;5023095;28;20402;-77
2022/02/08 05:42:19;;;;;;;6.23;2.70;;;;;;;;;;5019486;28;20418;-79
2022/02/08 05:44:42;;;;;;;4.30;1.57;;;;;;;;;;5018449;28;20942;-79
2022/02/08 05:47:09;;;;;;;10.50;2.17;;;;;;;;;;5018999;28;20411;-79
2022/02/08 05:49:51;;;;;;;3.37;1.50;;;;;;;;;;5015963;28;20427;-78
2022/02/08 05:54:46;;;;;;;4.30;2.00;;;;;;;;;;5015753;28;20430;-78
2022/02/08 05:57:12;;;;;;;6.40;1.90;;;;;;;;;;5015178;28;20435;-78
2022/02/08 05:59:39;;;;;;;4.17;1.73;;;;;;;;;;5014241;28;20451;-78
2022/02/08 06:02:06;;;;;;;3.73;1.73;;;;;;;;;;5015198;28;20880;-78
2022/02/08 06:04:36;;;;;;;4.00;1.83;;;;;;;;;;5014680;28;20404;-78
2022/02/08 06:07:02;;;;;;;6.00;1.90;;;;;;;;;;5015630;28;20414;-78
2022/02/08 06:09:28;;;;;;;7.53;2.07;;;;;;;;;;5015189;28;20396;-78
2022/02/08 06:11:54;;;;;;;5.10;1.50;;;;;;;;;;5015536;28;20444;-78
2022/02/08 06:14:25;;;;;;;3.40;1.90;;;;;;;;;;5015338;28;20391;-77
2022/02/08 06:16:51;;;;;;;5.63;2.07;;;;;;;;;;5015505;28;20380;-78
2022/02/08 06:19:17;;;;;;;4.90;2.00;;;;;;;;;;5016299;28;20545;-78
2022/02/08 06:21:43;;;;;;;5.30;1.63;;;;;;;;;;5015235;28;20399;-78
2022/02/08 06:24:09;;;;;;;3.90;1.83;;;;;;;;;;5014991;28;20435;-78
2022/02/08 06:26:35;;;;;;;4.90;2.00;;;;;;;;;;5015439;28;20891;-78
2022/02/08 06:29:11;;;;;;;5.43;1.77;;;;;;;;;;5015064;28;20887;-78
2022/02/08 06:31:37;;;;;;;2.80;1.50;;;;;;;;;;5015496;28;20478;-78
2022/02/08 06:34:03;;;;;;;4.80;1.93;;;;;;;;;;5015677;28;20418;-78
2022/02/08 06:36:30;;;;;;;4.60;2.10;;;;;;;;;;5014316;28;20843;-78
2022/02/08 06:38:56;;;;;;;6.57;1.97;;;;;;;;;;5015356;28;20945;-78
2022/02/08 06:41:23;;;;;;;4.97;1.90;;;;;;;;;;5015341;28;20449;-77
2022/02/08 06:43:49;;;;;;;4.70;1.77;;;;;;;;;;5015971;28;21008;-78
2022/02/08 06:46:15;;;;;;;3.70;1.90;;;;;;;;;;5015220;28;20919;-78
2022/02/08 06:48:41;;;;;;;4.83;1.63;;;;;;;;;;5014853;28;20411;-78
2022/02/08 06:51:07;;;;;;;6.93;2.40;;;;;;;;;;5039669;23;20486;-81
2022/02/08 06:53:33;;;;;;;5.97;2.00;;;;;;;;;;5055285;28;20418;-78
2022/02/08 06:56:02;;;;;;;10.70;2.73;;;;;;;;;;5038110;28;20399;-79
2022/02/08 06:58:35;;;;;;;7.37;1.83;;;;;;;;;;5034836;28;20469;-78
2022/02/08 07:01:03;;;;;;;5.07;2.03;;;;;;;;;;5036281;28;20434;-79
2022/02/08 07:03:30;;;;;;;6.07;2.50;;;;;;;;;;5041136;28;20444;-79
2022/02/08 07:05:56;;;;;;;5.57;2.97;;;;;;;;;;5022502;28;20498;-79
2022/02/08 07:08:24;;;;;;;4.00;1.70;;;;;;;;;;5041243;28;20513;-80
2022/02/08 07:10:50;;;;;;;4.83;2.10;;;;;;;;;;5040042;28;21353;-80
2022/02/08 07:13:16;;;;;;;5.57;1.83;;;;;;;;;;5039538;28;20789;-80
2022/02/08 07:15:42;;;;;;;5.93;2.57;;;;;;;;;;5039060;28;20922;-80
2022/02/08 07:18:08;;;;;;;2.80;1.80;;;;;;;;;;5037999;28;21241;-80
2022/02/08 07:20:34;;;;;;;4.70;2.23;;;;;;;;;;5040408;28;20806;-80
2022/02/08 07:23:00;;;;;;;3.27;1.97;;;;;;;;;;5039904;28;20431;-80
2022/02/08 07:25:27;;;;;;;4.70;1.77;;;;;;;;;;5038500;28;20787;-80
2022/02/08 07:27:53;;;;;;;3.90;2.00;;;;;;;;;;5038882;28;20581;-80
2022/02/08 07:30:19;;;;;;;2.60;1.73;;;;;;;;;;5040339;28;20454;-82
2022/02/08 07:32:47;;;;;;;3.80;2.20;;;;;;;;;;5043083;28;20493;-80
2022/02/08 07:35:41;;;;;;;2.30;1.67;;;;;;;;;;5042628;28;20431;-80
2022/02/08 07:38:19;;;;;;;3.40;1.80;;;;;;;;;;5039884;28;20465;-80
2022/02/08 07:43:19;;;;;;;5.10;1.70;;;;;;;;;;5041495;28;20465;-79
2022/02/08 07:45:45;;;;;;;4.97;2.00;;;;;;;;;;5041056;28;20426;-81
2022/02/08 07:48:11;;;;;;;5.00;2.13;;;;;;;;;;5038723;28;20468;-79
2022/02/08 07:50:39;;;;;;;4.23;1.90;;;;;;;;;;5023946;28;20461;-79
2022/02/08 07:53:09;;;;;;;5.73;1.83;;;;;;;;;;5037171;28;20590;-81
2022/02/08 07:55:35;;;;;;;5.72;2.05;;;;;;;;;;5035257;28;21518;-80
2022/02/08 07:58:01;;;;;;;3.70;2.20;;;;;;;;;;5052293;28;20719;-81
2022/02/08 08:00:27;;;;;;;4.30;1.67;;;;;;;;;;5038027;28;20840;-81
2022/02/08 08:02:53;;;;;;;5.77;2.03;;;;;;;;;;5038013;28;20787;-80
2022/02/08 08:05:20;;;;;;;8.87;2.27;;;;;;;;;;5038942;28;20784;-80
2022/02/08 08:07:46;;;;;;;4.87;2.20;;;;;;;;;;5040782;28;20422;-80
2022/02/08 08:10:20;;;;;;;4.27;2.10;;;;;;;;;;5040923;28;20434;-80
2022/02/08 08:12:49;;;;;;;4.10;1.90;;;;;;;;;;5038635;28;20473;-80
2022/02/08 08:15:52;;;;;;;3.90;2.10;;;;;;;;;;5041794;28;20422;-79
2022/02/08 08:18:38;;;;;;;4.38;1.73;;;;;;;;;;5041755;28;20453;-78
2022/02/08 08:21:04;;;;;;;3.93;1.70;;;;;;;;;;5063079;28;20195;-78
2022/02/08 08:23:30;;;;;;;4.37;1.70;;;;;;;;;;5049185;28;20414;-79
2022/02/08 08:25:56;;;;;;;4.73;1.57;;;;;;;;;;5049180;28;20509;-78
2022/02/08 08:28:22;;;;;;;6.17;1.80;;;;;;;;;;5050357;28;20432;-78
2022/02/08 08:30:48;;;;;;;3.07;1.40;;;;;;;;;;5048302;28;20455;-79
2022/02/08 08:33:14;;;;;;;3.03;2.07;;;;;;;;;;5042495;28;20438;-79
2022/02/08 08:35:40;;;;;;;3.67;1.50;;;;;;;;;;5040953;28;20426;-79
2022/02/08 08:38:09;;;;;;;6.00;2.13;;;;;;;;;;5037741;28;20454;-78
2022/02/08 08:41:03;;;;;;;3.67;1.73;;;;;;;;;;5042224;28;20443;-78
2022/02/08 08:43:51;;;;;;;5.27;1.97;;;;;;;;;;5033644;28;20419;-78
2022/02/08 08:51:45;;;;;;;3.80;1.90;;;;;;;;;;5041544;28;20825;-77
2022/02/08 08:54:12;;;;;;;7.80;1.90;;;;;;;;;;5039054;28;20537;-78
2022/02/08 08:56:39;;;;;;;2.60;1.67;;;;;;;;;;5041381;28;20438;-78
2022/02/08 08:59:05;;;;;;;3.03;2.00;;;;;;;;;;5040890;28;20560;-78
2022/02/08 09:01:32;;;;;;;5.77;1.57;;;;;;;;;;5038490;28;20475;-78
2022/02/08 09:03:58;;;;;;;4.10;1.90;;;;;;;;;;5037177;28;20442;-77
2022/02/08 09:06:25;;;;;;;4.40;2.10;;;;;;;;;;5039489;28;20450;-78
2022/02/08 09:08:51;;;;;;;4.30;1.73;;;;;;;;;;5037285;28;20437;-78
2022/02/08 09:13:50;;;;;;;2.60;1.30;;;;;;;;;;5041307;28;20426;-78
2022/02/08 09:16:27;;;;;;;5.07;1.67;;;;;;;;;;5039407;28;20587;-78
2022/02/08 09:22:00;;;;;;;3.73;1.67;;;;;;;;;;5035646;28;20430;-78
2022/02/08 09:30:03;;;;;;;2.80;1.83;;;;;;;;;;5040534;28;20401;-77
2022/02/08 09:32:42;;;;;;;2.43;1.80;;;;;;;;;;5036837;28;20979;-77
2022/02/08 09:35:09;;;;;;;2.47;1.60;;;;;;;;;;5042861;28;20411;-78
2022/02/08 09:37:36;;;;;;;6.20;1.43;;;;;;;;;;5040728;28;20455;-77
2022/02/08 09:40:02;;;;;;;3.13;1.63;;;;;;;;;;5039372;28;20415;-78
2022/02/08 09:42:28;;;;;;;2.00;1.33;;;;;;;;;;5037466;28;20449;-77
2022/02/08 09:44:55;;;;;;;3.70;1.70;;;;;;;;;;5032426;28;20422;-77
2022/02/08 09:47:31;;;;;;;5.23;1.73;;;;;;;;;;5044242;28;20418;-78
2022/02/08 09:50:05;;;;;;;3.00;1.40;;;;;;;;;;5042634;28;20414;-79
2022/02/08 09:52:32;;;;;;;5.60;1.80;;;;;;;;;;5043166;28;20492;-78
2022/02/08 09:54:58;;;;;;;2.33;1.10;;;;;;;;;;5045504;28;20422;-78
2022/02/08 09:57:24;;;;;;;4.10;1.60;;;;;;;;;;5041036;28;20410;-80
2022/02/08 09:59:50;;;;;;;3.10;1.53;;;;;;;;;;5043047;28;20425;-79
2022/02/08 10:02:20;;;;;;;2.90;1.13;;;;;;;;;;5036456;28;20442;-79
2022/02/08 10:04:46;;;;;;;3.70;1.50;;;;;;;;;;5029534;28;20418;-80
2022/02/08 10:07:13;;;;;;;4.40;1.67;;;;;;;;;;5043139;28;20430;-80
2022/02/08 10:09:39;;;;;;;2.90;1.30;;;;;;;;;;5034741;28;20422;-80
2022/02/08 10:12:05;;;;;;;2.37;1.27;;;;;;;;;;5034954;28;20438;-79
2022/02/08 10:22:56;;;;;;;2.23;1.10;;;;;;;;;;5032841;28;20986;-79
2022/02/08 10:38:42;;;;;;;2.20;1.40;;;;;;;;;;5040466;28;20469;-80
2022/02/08 10:41:17;;;;;;;4.00;1.57;;;;;;;;;;5045006;28;20445;-79
2022/02/08 10:43:43;;;;;;;3.08;1.35;;;;;;;;;;5056208;28;20433;-80
2022/02/08 10:46:20;;;;;;;3.07;1.40;;;;;;;;;;5040581;28;20608;-80
2022/02/08 10:48:46;;;;;;;2.30;1.10;;;;;;;;;;5040861;28;20434;-80
2022/02/08 10:51:15;;;;;;;2.30;1.30;;;;;;;;;;5043717;28;20208;-80
2022/02/08 10:53:53;;;;;;;5.00;1.30;;;;;;;;;;5055637;28;20430;-81
2022/02/08 10:56:23;;;;;;;4.10;2.40;;;;;;;;;;5035361;28;20410;-80
2022/02/08 10:58:55;;;;;;;4.17;1.37;;;;;;;;;;5035901;28;20457;-81
2022/02/08 11:01:28;;;;;;;4.07;1.67;;;;;;;;;;5034787;28;20509;-79
2022/02/08 11:04:04;;;;;;;4.40;1.40;;;;;;;;;;5054041;28;20419;-81
2022/02/08 11:06:39;;;;;;;5.70;1.42;;;;;;;;;;5030637;28;20927;-79
2022/02/08 11:24:56;;;;;;;3.03;1.40;;;;;;;;;;5038203;28;20407;-79
2022/02/08 11:27:22;;;;;;;4.70;1.20;;;;;;;;;;5036741;28;20490;-80
2022/02/08 11:30:02;;;;;;;3.43;1.20;;;;;;;;;;5035418;28;20406;-78
2022/02/08 11:32:50;;;;;;;3.30;1.33;;;;;;;;;;5039903;28;20454;-79
2022/02/08 11:51:55;;;;;;;2.40;1.50;;;;;;;;;;5030279;28;20458;-80
2022/02/08 12:07:05;;;;;;;2.73;1.27;;;;;;;;;;5033143;28;20770;-80
2022/02/08 12:09:39;;;;;;;2.40;1.00;;;;;;;;;;5033307;28;20414;-81
2022/02/08 12:35:29;;;;;;;4.77;1.30;;;;;;;;;;5039442;28;20437;-80
2022/02/08 14:22:56;;;;;;;1.40;0.83;;;;;;;;;;5029123;28;20418;-80
2022/02/08 14:25:44;;;;;;;2.97;1.20;;;;;;;;;;5025587;28;20414;-80
2022/02/08 15:05:24;;;;;;;2.80;1.00;;;;;;;;;;5039054;28;20204;-78
2022/02/08 15:08:51;;;;;;;7.23;1.00;;;;;;;;;;5038564;28;20521;-79
2022/02/08 15:11:17;;;;;;;2.40;1.40;;;;;;;;;;5044205;28;20445;-79
2022/02/08 15:13:47;;;;;;;2.20;1.10;;;;;;;;;;5044659;28;20517;-80
2022/02/08 15:16:29;;;;;;;2.00;1.10;;;;;;;;;;5033660;28;20446;-79
2022/02/08 15:18:58;;;;;;;1.63;1.00;;;;;;;;;;5042538;28;21009;-77
2022/02/08 15:21:29;;;;;;;2.13;1.17;;;;;;;;;;5059309;28;20996;-78
2022/02/08 15:23:55;;;;;;;2.53;1.00;;;;;;;;;;5037985;28;20411;-78
2022/02/08 15:26:21;;;;;;;2.00;1.20;;;;;;;;;;5043911;28;20914;-79
2022/02/08 15:28:48;;;;;;;1.50;0.80;;;;;;;;;;5043577;28;20454;-78
2022/02/08 15:31:14;;;;;;;2.50;0.70;;;;;;;;;;5044447;28;20447;-79
2022/02/08 15:33:40;;;;;;;1.70;0.93;;;;;;;;;;5038197;28;20172;-79
2022/02/08 15:36:06;;;;;;;2.77;1.20;;;;;;;;;;5061379;28;21234;-79
2022/02/08 15:38:36;;;;;;;2.10;1.30;;;;;;;;;;5049271;28;20522;-80
2022/02/08 15:41:02;;;;;;;1.73;1.03;;;;;;;;;;5047064;28;20950;-78
2022/02/08 15:43:29;;;;;;;1.83;1.20;;;;;;;;;;5043053;28;20414;-80
2022/02/08 15:46:20;;;;;;;2.10;1.00;;;;;;;;;;5042250;28;20887;-81
2022/02/08 15:48:46;;;;;;;4.13;1.17;;;;;;;;;;5040074;28;20449;-79
2022/02/08 16:07:16;;;;;;;9.13;1.40;;;;;;;;;;5050478;28;20421;-78
2022/02/08 16:17:27;;;;;;;1.90;1.10;;;;;;;;;;5051034;28;20454;-80
2022/02/08 16:24:58;;;;;;;4.70;1.20;;;;;;;;;;5028775;28;20406;-78
2022/02/08 16:54:57;;;;;;;5.80;1.53;;;;;;;;;;5040864;28;20464;-79
2022/02/08 16:57:41;;;;;;;3.17;1.43;;;;;;;;;;5030080;28;20406;-79
2022/02/08 17:00:09;;;;;;;3.07;1.70;;;;;;;;;;5038442;28;20434;-78
2022/02/08 17:02:39;;;;;;;4.40;1.80;;;;;;;;;;5039128;28;20429;-78
2022/02/08 17:05:05;;;;;;;4.20;1.60;;;;;;;;;;5041452;28;20422;-78
2022/02/08 17:07:38;;;;;;;2.33;1.60;;;;;;;;;;5039830;28;20492;-79
2022/02/08 17:10:07;;;;;;;5.73;1.60;;;;;;;;;;5040962;28;20434;-78
2022/02/08 17:12:46;;;;;;;4.60;1.80;;;;;;;;;;5032258;28;20430;-77
2022/02/08 17:15:43;;;;;;;3.00;2.00;;;;;;;;;;5042141;28;20414;-78
2022/02/08 17:38:29;;;;;;;4.13;2.00;;;;;;;;;;4991226;28;20439;-79
2022/02/08 17:48:08;;;;;;;3.07;1.93;;;;;;;;;;4995937;28;20844;-81
2022/02/08 17:50:34;;;;;;;2.43;1.80;;;;;;;;;;4995064;28;20781;-80
2022/02/08 17:53:00;;;;;;;2.30;1.60;;;;;;;;;;4989143;28;20435;-78
2022/02/08 17:55:29;;;;;;;4.20;1.67;;;;;;;;;;4997589;28;20447;-82
2022/02/08 17:57:55;;;;;;;3.13;1.87;;;;;;;;;;5000932;28;20471;-80
2022/02/08 18:00:22;;;;;;;3.37;2.23;;;;;;;;;;4983426;28;20546;-80
2022/02/08 18:02:48;;;;;;;4.40;1.93;;;;;;;;;;4997938;28;20428;-81
2022/02/08 18:05:15;;;;;;;4.10;2.33;;;;;;;;;;4995953;28;20451;-81
2022/02/08 18:07:42;;;;;;;3.47;1.70;;;;;;;;;;4995791;28;20507;-82
2022/02/08 18:10:09;;;;;;;2.80;1.83;;;;;;;;;;4998770;28;20412;-80
2022/02/08 18:12:36;;;;;;;5.67;2.43;;;;;;;;;;4998378;28;20396;-80
2022/02/08 18:15:07;;;;;;;3.37;1.73;;;;;;;;;;4999797;28;20420;-78
2022/02/08 18:17:41;;;;;;;2.87;2.10;;;;;;;;;;5005565;28;20384;-80
2022/02/08 18:20:26;;;;;;;3.53;1.77;;;;;;;;;;5002843;28;20385;-81
2022/02/08 19:23:50;;;;;;;2.70;1.90;;;;;;;;;;5001213;28;20416;-80
2022/02/08 19:26:21;;;;;;;6.20;2.47;;;;;;;;;;5001442;28;20439;-80
2022/02/08 19:28:49;;;;;;;3.93;1.83;;;;;;;;;;5000557;28;20396;-81
2022/02/08 19:31:19;;;;;;;3.53;2.40;;;;;;;;;;5001136;28;20419;-81
2022/02/08 19:33:46;;;;;;;3.70;2.20;;;;;;;;;;5001194;28;20893;-80
2022/02/08 19:36:12;;;;;;;4.17;2.90;;;;;;;;;;5001162;28;21010;-80
2022/02/08 19:38:41;;;;;;;2.97;2.07;;;;;;;;;;5001560;28;20458;-81
2022/02/08 19:41:07;;;;;;;5.73;2.97;;;;;;;;;;5001069;28;20412;-81
2022/02/08 19:43:34;;;;;;;3.70;2.67;;;;;;;;;;5002648;28;20404;-81
2022/02/08 19:46:00;;;;;;;5.50;2.60;;;;;;;;;;5001785;28;20436;-81
2022/02/08 19:48:26;;;;;;;4.63;2.90;;;;;;;;;;5001245;28;20566;-81
2022/02/08 19:50:52;;;;;;;6.83;2.83;;;;;;;;;;5001487;28;20411;-81
2022/02/08 19:53:19;;;;;;;4.17;2.33;;;;;;;;;;5001400;28;20447;-81
2022/02/08 19:58:20;;;;;;;5.67;2.90;;;;;;;;;;5000884;28;20466;-81
2022/02/08 20:00:56;;;;;;;7.07;2.60;;;;;;;;;;5001177;28;20725;-81
2022/02/08 20:03:24;;;;;;;6.60;2.97;;;;;;;;;;5000832;28;20436;-81
2022/02/08 20:05:50;;;;;;;4.63;2.37;;;;;;;;;;5000326;28;20428;-81
2022/02/08 20:08:16;;;;;;;6.40;3.13;;;;;;;;;;4998831;28;20495;-81
2022/02/08 20:10:42;;;;;;;3.83;2.40;;;;;;;;;;4999380;28;20419;-81
2022/02/08 20:13:10;;;;;;;4.70;2.80;;;;;;;;;;4999535;28;20404;-80
2022/02/08 20:15:36;;;;;;;8.20;3.30;;;;;;;;;;5000168;28;20455;-80
2022/02/08 20:18:03;;;;;;;5.73;3.23;;;;;;;;;;5000370;28;20487;-80
2022/02/08 20:20:29;;;;;;;7.43;4.40;;;;;;;;;;4999198;28;20412;-79
2022/02/08 20:23:01;;;;;;;5.13;3.47;;;;;;;;;;5001458;28;20412;-80
2022/02/08 20:25:27;;;;;;;4.40;2.60;;;;;;;;;;5001360;28;20847;-81
2022/02/08 20:28:06;;;;;;;5.50;3.47;;;;;;;;;;5000094;28;20913;-81
2022/02/08 20:30:34;;;;;;;5.77;2.90;;;;;;;;;;4999570;28;20384;-81
2022/02/08 20:33:00;;;;;;;3.90;2.90;;;;;;;;;;4999263;28;20468;-82
2022/02/08 20:35:26;;;;;;;3.80;2.90;;;;;;;;;;4998873;28;20456;-81
2022/02/08 20:37:52;;;;;;;4.13;3.17;;;;;;;;;;4998891;28;20456;-81
2022/02/08 20:40:19;;;;;;;5.13;3.07;;;;;;;;;;4998757;28;20396;-81
2022/02/08 20:42:45;;;;;;;4.57;2.80;;;;;;;;;;4998322;28;20410;-81
2022/02/08 20:45:12;;;;;;;6.10;3.67;;;;;;;;;;4998623;28;20451;-79
2022/02/08 20:47:44;;;;;;;6.67;2.70;;;;;;;;;;4999061;28;20420;-81
2022/02/08 20:50:12;;;;;;;5.60;2.97;;;;;;;;;;4996607;28;20397;-81
2022/02/08 20:52:42;;;;;;;4.80;2.87;;;;;;;;;;4998665;28;20412;-81
2022/02/08 20:55:11;;;;;;;5.27;3.70;;;;;;;;;;4998703;28;20795;-81
2022/02/08 20:57:39;;;;;;;8.63;3.80;;;;;;;;;;4998253;28;20411;-81
2022/02/08 21:00:08;;;;;;;6.13;3.17;;;;;;;;;;4998739;28;20392;-81
2022/02/08 21:02:37;;;;;;;6.73;3.97;;;;;;;;;;4998881;28;20407;-81
2022/02/08 21:07:49;;;;;;;5.97;3.30;;;;;;;;;;4999458;28;20408;-80
2022/02/08 21:10:15;;;;;;;9.37;4.63;;;;;;;;;;5004622;28;20421;-78
2022/02/08 21:12:49;;;;;;;9.23;3.90;;;;;;;;;;5006801;28;20476;-78
2022/02/08 21:15:15;;;;;;;15.77;5.70;;;;;;;;;;5005340;28;20463;-78
2022/02/08 21:17:41;;;;;;;8.20;5.37;;;;;;;;;;4999497;28;20408;-81
2022/02/08 21:20:11;;;;;;;10.50;5.90;;;;;;;;;;4997078;28;20885;-81
2022/02/08 21:22:37;;;;;;;8.80;4.90;;;;;;;;;;4997772;28;20499;-81
2022/02/08 21:25:04;;;;;;;10.33;4.40;;;;;;;;;;4997745;28;20416;-80
2022/02/08 21:27:32;;;;;;;6.80;4.30;;;;;;;;;;4997780;28;20411;-81
2022/02/08 21:53:45;;;;;;;8.33;4.60;;;;;;;;;;4997910;28;20432;-81
2022/02/08 21:56:12;;;;;;;6.13;4.17;;;;;;;;;;4997830;28;20770;-80
2022/02/08 21:58:38;;;;;;;5.77;3.53;;;;;;;;;;4997410;28;20451;-81
2022/02/08 22:01:04;;;;;;;4.47;3.00;;;;;;;;;;4997797;28;20404;-81
2022/02/08 22:03:31;;;;;;;8.27;4.00;;;;;;;;;;4996309;28;20420;-80
2022/02/08 22:06:00;;;;;;;6.20;3.67;;;;;;;;;;4994045;28;20432;-80
2022/02/08 22:08:53;;;;;;;8.87;3.93;;;;;;;;;;4995791;28;20412;-81
2022/02/08 22:22:14;;;;;;;5.13;3.03;;;;;;;;;;5000235;28;20654;-80
2022/02/08 22:25:16;;;;;;;6.07;3.50;;;;;;;;;;4997077;28;20424;-81
2022/02/08 22:27:45;;;;;;;5.53;3.30;;;;;;;;;;4997564;28;20494;-81
2022/02/08 22:32:39;;;;;;;4.37;3.10;;;;;;;;;;5003992;28;20396;-80
2022/02/08 22:35:22;;;;;;;6.43;3.10;;;;;;;;;;5003040;28;20443;-81
2022/02/08 22:38:00;;;;;;;5.30;3.20;;;;;;;;;;5002421;28;20408;-81
2022/02/08 22:40:29;;;;;;;5.27;3.30;;;;;;;;;;5002161;28;20467;-80
2022/02/08 22:43:05;;;;;;;6.13;3.90;;;;;;;;;;4999497;28;20494;-80
2022/02/08 22:45:33;;;;;;;5.50;3.70;;;;;;;;;;5001420;28;20474;-81
2022/02/08 22:47:59;;;;;;;6.77;3.90;;;;;;;;;;5001305;28;20825;-80
2022/02/08 22:50:25;;;;;;;6.47;3.83;;;;;;;;;;5000019;28;20943;-81
2022/02/08 22:52:51;;;;;;;6.23;3.73;;;;;;;;;;5000891;28;20913;-81
2022/02/08 22:55:17;;;;;;;4.60;3.20;;;;;;;;;;5000353;28;20515;-81
2022/02/08 22:57:43;;;;;;;9.33;3.60;;;;;;;;;;5000710;28;20408;-81
2022/02/08 23:00:12;;;;;;;5.90;3.70;;;;;;;;;;5001367;28;20878;-81
2022/02/08 23:02:40;;;;;;;4.80;3.40;;;;;;;;;;5001594;28;20506;-80
2022/02/08 23:05:09;;;;;;;9.27;4.30;;;;;;;;;;5004011;28;20436;-79
2022/02/08 23:07:35;;;;;;;5.77;3.90;;;;;;;;;;5000880;28;20455;-80
2022/02/08 23:10:05;;;;;;;6.10;3.37;;;;;;;;;;5000290;28;20411;-79
2022/02/08 23:36:59;;;;;;;5.33;3.47;;;;;;;;;;5028466;22;20510;-80
2022/02/08 23:39:28;;;;;;;8.07;4.00;;;;;;;;;;5020434;28;20482;-80
2022/02/08 23:41:54;;;;;;;5.57;3.80;;;;;;;;;;5020182;28;20388;-80
2022/02/08 23:44:24;;;;;;;5.77;4.33;;;;;;;;;;5020904;28;20454;-80
2022/02/08 23:46:51;;;;;;;6.03;3.63;;;;;;;;;;5020872;28;20502;-80
2022/02/08 23:49:35;;;;;;;6.70;4.23;;;;;;;;;;5020934;28;20399;-80
2022/02/08 23:52:04;;;;;;;5.13;3.67;;;;;;;;;;5019738;28;20857;-80
2022/02/08 23:54:34;;;;;;;5.47;3.50;;;;;;;;;;5019595;28;20403;-80
2022/02/08 23:57:04;;;;;;;5.90;4.00;;;;;;;;;;5021296;28;20430;-81
2022/02/08 23:59:35;;;;;;;5.07;3.50;;;;;;;;;;5020783;28;20458;-80
